createdAt,value
2018-06-23T00:00:31.758Z,76
2018-06-23T00:01:34.189Z,76
2018-06-23T00:02:36.303Z,77
2018-06-23T00:03:38.670Z,76
2018-06-23T00:04:40.719Z,76
2018-06-23T00:05:42.750Z,76
2018-06-23T00:06:44.847Z,76
2018-06-23T00:07:46.891Z,76
2018-06-23T00:08:49.227Z,76
2018-06-23T00:09:51.293Z,76
2018-06-23T00:10:53.341Z,76
2018-06-23T00:11:55.448Z,76
2018-06-23T00:12:57.493Z,76
2018-06-23T00:13:59.526Z,76
2018-06-23T00:15:02.283Z,77
2018-06-23T00:16:04.301Z,76
2018-06-23T00:17:06.721Z,76
2018-06-23T00:18:08.779Z,76
2018-06-23T00:19:10.802Z,76
2018-06-23T00:20:12.840Z,76
2018-06-23T00:21:15.257Z,76
2018-06-23T00:22:17.589Z,76
2018-06-23T00:23:19.677Z,76
2018-06-23T00:24:21.941Z,76
2018-06-23T00:25:25.091Z,77
2018-06-23T00:26:27.641Z,77
2018-06-23T00:27:31.112Z,77
2018-06-23T00:28:33.667Z,77
2018-06-23T00:29:36.672Z,78
2018-06-23T00:30:39.336Z,77
2018-06-23T00:31:41.986Z,77
2018-06-23T00:32:44.572Z,78
2018-06-23T00:33:47.406Z,77
2018-06-23T00:34:49.858Z,77
2018-06-23T00:35:53.096Z,77
2018-06-23T00:36:55.806Z,78
2018-06-23T00:37:57.953Z,78
2018-06-23T00:39:00.382Z,78
2018-06-23T00:40:02.955Z,78
2018-06-23T00:41:06.614Z,78
2018-06-23T00:42:09.725Z,78
2018-06-23T00:43:13.993Z,78
2018-06-23T00:44:16.435Z,78
2018-06-23T00:45:20.150Z,78
2018-06-23T00:46:22.514Z,78
2018-06-23T00:47:24.825Z,78
2018-06-23T00:48:26.946Z,78
2018-06-23T00:49:30.410Z,79
2018-06-23T00:50:33.576Z,78
2018-06-23T00:51:36.067Z,78
2018-06-23T00:52:39.207Z,78
2018-06-23T00:53:41.271Z,78
2018-06-23T00:54:43.311Z,78
2018-06-23T00:55:45.338Z,79
2018-06-23T00:56:47.384Z,78
2018-06-23T00:57:49.441Z,78
2018-06-23T00:58:51.469Z,79
2018-06-23T00:59:53.626Z,78
2018-06-23T01:00:55.677Z,79
2018-06-23T01:01:57.752Z,79
2018-06-23T01:03:00.069Z,79
2018-06-23T01:04:02.195Z,79
2018-06-23T01:05:04.238Z,79
2018-06-23T01:06:06.292Z,79
2018-06-23T01:07:08.355Z,78
2018-06-23T01:08:10.508Z,79
2018-06-23T01:09:12.546Z,79
2018-06-23T01:10:15.204Z,79
2018-06-23T01:11:18.357Z,79
2018-06-23T01:12:22.660Z,80
2018-06-23T01:13:25.933Z,79
2018-06-23T01:14:29.572Z,80
2018-06-23T01:15:31.754Z,80
2018-06-23T01:16:34.986Z,80
2018-06-23T01:17:39.076Z,80
2018-06-23T01:18:42.124Z,80
2018-06-23T01:19:44.871Z,80
2018-06-23T01:20:48.620Z,80
2018-06-23T01:21:50.860Z,80
2018-06-23T01:22:54.135Z,80
2018-06-23T01:23:56.537Z,80
2018-06-23T01:24:59.215Z,80
2018-06-23T01:26:01.461Z,80
2018-06-23T01:27:03.855Z,80
2018-06-23T01:28:06.763Z,80
2018-06-23T01:29:09.981Z,80
2018-06-23T01:30:12.863Z,80
2018-06-23T01:31:15.507Z,80
2018-06-23T01:32:18.147Z,80
2018-06-23T01:33:21.266Z,80
2018-06-23T01:34:25.790Z,80
2018-06-23T01:35:28.306Z,81
2018-06-23T01:36:31.345Z,80
2018-06-23T01:37:34.445Z,80
2018-06-23T01:38:37.552Z,80
2018-06-23T01:39:40.237Z,81
2018-06-23T01:40:42.781Z,80
2018-06-23T01:41:45.987Z,80
2018-06-23T01:42:48.746Z,80
2018-06-23T01:43:50.989Z,80
2018-06-23T01:44:54.167Z,80
2018-06-23T01:45:56.690Z,80
2018-06-23T01:46:59.132Z,80
2018-06-23T01:48:02.426Z,80
2018-06-23T01:49:05.484Z,80
2018-06-23T01:50:08.213Z,80
2018-06-23T01:51:10.654Z,80
2018-06-23T01:52:13.886Z,80
2018-06-23T01:53:16.170Z,80
2018-06-23T01:54:19.116Z,80
2018-06-23T01:55:22.155Z,80
2018-06-23T01:56:24.905Z,80
2018-06-23T01:57:28.037Z,80
2018-06-23T01:58:31.117Z,81
2018-06-23T01:59:33.616Z,81
2018-06-23T02:00:35.752Z,81
2018-06-23T02:01:38.771Z,80
2018-06-23T02:02:41.164Z,80
2018-06-23T02:03:43.855Z,80
2018-06-23T02:04:48.072Z,80
2018-06-23T02:05:50.694Z,81
2018-06-23T02:06:52.868Z,80
2018-06-23T02:07:55.352Z,81
2018-06-23T02:08:57.926Z,81
2018-06-23T02:10:00.220Z,81
2018-06-23T02:11:03.899Z,81
2018-06-23T02:12:06.090Z,81
2018-06-23T02:13:08.933Z,81
2018-06-23T02:14:11.271Z,81
2018-06-23T02:15:14.167Z,82
2018-06-23T02:16:17.857Z,81
2018-06-23T02:17:20.644Z,81
2018-06-23T02:18:23.484Z,81
2018-06-23T02:19:26.589Z,81
2018-06-23T02:20:29.529Z,82
2018-06-23T02:21:31.753Z,81
2018-06-23T02:22:34.204Z,82
2018-06-23T02:23:38.196Z,81
2018-06-23T02:24:40.651Z,81
2018-06-23T02:25:43.644Z,82
2018-06-23T02:26:46.240Z,82
2018-06-23T02:27:49.510Z,82
2018-06-23T02:28:52.437Z,81
2018-06-23T02:29:56.550Z,82
2018-06-23T02:30:59.918Z,82
2018-06-23T02:32:03.145Z,82
2018-06-23T02:33:05.835Z,82
2018-06-23T02:34:09.171Z,82
2018-06-23T02:35:12.749Z,82
2018-06-23T02:36:15.116Z,83
2018-06-23T02:37:17.731Z,82
2018-06-23T02:38:20.609Z,83
2018-06-23T02:39:23.261Z,83
2018-06-23T02:40:25.752Z,83
2018-06-23T02:41:29.229Z,83
2018-06-23T02:42:31.667Z,83
2018-06-23T02:43:34.924Z,83
2018-06-23T02:44:38.250Z,83
2018-06-23T02:45:40.991Z,83
2018-06-23T02:46:43.559Z,83
2018-06-23T02:47:46.885Z,83
2018-06-23T02:48:50.517Z,84
2018-06-23T02:49:53.358Z,84
2018-06-23T02:50:56.128Z,84
2018-06-23T02:51:59.399Z,84
2018-06-23T02:53:01.938Z,84
2018-06-23T02:54:05.307Z,84
2018-06-23T02:55:08.412Z,84
2018-06-23T02:56:11.180Z,84
2018-06-23T02:57:14.677Z,84
2018-06-23T02:58:18.334Z,84
2018-06-23T02:59:20.710Z,84
2018-06-23T03:00:23.544Z,84
2018-06-23T03:01:25.938Z,84
2018-06-23T03:02:29.008Z,84
2018-06-23T03:03:31.659Z,84
2018-06-23T03:04:33.949Z,84
2018-06-23T03:05:36.694Z,84
2018-06-23T03:06:38.885Z,84
2018-06-23T03:07:41.007Z,84
2018-06-23T03:08:43.682Z,84
2018-06-23T03:09:46.955Z,85
2018-06-23T03:10:50.256Z,84
2018-06-23T03:11:53.245Z,84
2018-06-23T03:12:56.917Z,84
2018-06-23T03:13:59.843Z,84
2018-06-23T03:15:02.478Z,84
2018-06-23T03:16:05.149Z,84
2018-06-23T03:17:07.553Z,85
2018-06-23T03:18:10.720Z,85
2018-06-23T03:19:13.449Z,84
2018-06-23T03:20:16.181Z,84
2018-06-23T03:21:19.109Z,85
2018-06-23T03:22:22.326Z,84
2018-06-23T03:23:24.710Z,85
2018-06-23T03:24:27.784Z,84
2018-06-23T03:25:30.420Z,84
2018-06-23T03:26:32.764Z,84
2018-06-23T03:27:34.798Z,84
2018-06-23T03:28:36.863Z,85
2018-06-23T03:29:38.914Z,85
2018-06-23T03:30:41.922Z,85
2018-06-23T03:31:44.002Z,85
2018-06-23T03:32:46.036Z,85
2018-06-23T03:33:48.068Z,84
2018-06-23T03:34:50.128Z,84
2018-06-23T03:35:52.499Z,84
2018-06-23T03:36:54.829Z,84
2018-06-23T03:37:57.403Z,84
2018-06-23T03:38:59.777Z,84
2018-06-23T03:40:02.046Z,84
2018-06-23T03:41:04.407Z,84
2018-06-23T03:42:06.842Z,84
2018-06-23T03:43:09.162Z,84
2018-06-23T03:44:11.960Z,84
2018-06-23T03:45:14.019Z,85
2018-06-23T03:46:16.414Z,85
2018-06-23T03:47:18.442Z,85
2018-06-23T03:48:20.498Z,85
2018-06-23T03:49:22.519Z,84
2018-06-23T03:50:24.587Z,84
2018-06-23T03:51:27.315Z,84
2018-06-23T03:52:29.355Z,84
2018-06-23T03:53:31.720Z,85
2018-06-23T03:54:33.753Z,85
2018-06-23T03:55:35.782Z,85
2018-06-23T03:56:37.883Z,85
2018-06-23T03:57:39.978Z,86
2018-06-23T03:58:42.411Z,85
2018-06-23T03:59:44.721Z,85
2018-06-23T04:00:46.759Z,85
2018-06-23T04:01:49.220Z,85
2018-06-23T04:02:51.265Z,85
2018-06-23T04:03:53.608Z,85
2018-06-23T04:04:55.979Z,85
2018-06-23T04:05:58.019Z,85
2018-06-23T04:07:00.048Z,85
2018-06-23T04:08:02.110Z,85
2018-06-23T04:09:04.194Z,85
2018-06-23T04:10:06.282Z,85
2018-06-23T04:11:08.297Z,85
2018-06-23T04:12:11.010Z,86
2018-06-23T04:13:13.045Z,86
2018-06-23T04:14:15.125Z,85
2018-06-23T04:15:17.559Z,86
2018-06-23T04:16:19.650Z,86
2018-06-23T04:17:22.020Z,86
2018-06-23T04:18:24.087Z,86
2018-06-23T04:19:26.561Z,86
2018-06-23T04:20:29.041Z,86
2018-06-23T04:21:31.110Z,86
2018-06-23T04:22:33.142Z,86
2018-06-23T04:23:35.568Z,86
2018-06-23T04:24:37.610Z,87
2018-06-23T04:25:39.672Z,87
2018-06-23T04:26:42.089Z,87
2018-06-23T04:27:44.169Z,87
2018-06-23T04:28:46.208Z,86
2018-06-23T04:29:48.246Z,86
2018-06-23T04:30:50.316Z,86
2018-06-23T04:31:52.338Z,87
2018-06-23T04:32:54.379Z,87
2018-06-23T04:33:56.443Z,87
2018-06-23T04:34:58.480Z,87
2018-06-23T04:36:00.520Z,87
2018-06-23T04:37:02.892Z,88
2018-06-23T04:38:04.950Z,88
2018-06-23T04:39:07.681Z,88
2018-06-23T04:40:09.721Z,88
2018-06-23T04:41:11.792Z,88
2018-06-23T04:42:13.817Z,88
2018-06-23T04:43:16.169Z,88
2018-06-23T04:44:18.246Z,89
2018-06-23T04:45:20.702Z,89
2018-06-23T04:46:22.734Z,89
2018-06-23T04:47:24.780Z,89
2018-06-23T04:48:27.229Z,89
2018-06-23T04:49:29.320Z,89
2018-06-23T04:50:31.390Z,89
2018-06-23T04:51:33.533Z,89
2018-06-23T04:52:36.007Z,89
2018-06-23T04:53:38.060Z,89
2018-06-23T04:54:40.139Z,89
2018-06-23T04:55:42.217Z,89
2018-06-23T04:56:44.586Z,89
2018-06-23T04:57:46.964Z,89
2018-06-23T04:58:49.000Z,89
2018-06-23T04:59:52.193Z,88
2018-06-23T05:00:55.444Z,89
2018-06-23T05:01:58.669Z,88
2018-06-23T05:03:01.923Z,87
2018-06-23T05:04:04.879Z,87
2018-06-23T05:05:08.400Z,87
2018-06-23T05:06:11.895Z,87
2018-06-23T05:07:15.474Z,86
2018-06-23T05:08:19.172Z,86
2018-06-23T05:09:23.013Z,85
2018-06-23T05:10:25.362Z,86
2018-06-23T05:11:27.401Z,84
2018-06-23T05:12:29.444Z,84
2018-06-23T05:13:31.493Z,84
2018-06-23T05:14:33.808Z,83
2018-06-23T05:15:35.840Z,82
2018-06-23T05:16:37.876Z,83
2018-06-23T05:17:39.924Z,83
2018-06-23T05:18:41.947Z,81
2018-06-23T05:19:43.996Z,81
2018-06-23T05:20:46.032Z,81
2018-06-23T05:21:48.384Z,81
2018-06-23T05:22:50.414Z,82
2018-06-23T05:23:52.455Z,81
2018-06-23T05:24:54.480Z,81
2018-06-23T05:25:56.534Z,82
2018-06-23T05:26:58.541Z,80
2018-06-23T05:28:00.881Z,82
2018-06-23T05:29:02.900Z,82
2018-06-23T05:30:04.945Z,80
2018-06-23T05:31:06.983Z,80
2018-06-23T05:32:09.024Z,81
2018-06-23T05:33:11.057Z,80
2018-06-23T05:34:13.091Z,79
2018-06-23T05:35:15.129Z,79
2018-06-23T05:36:17.178Z,80
2018-06-23T05:37:19.207Z,80
2018-06-23T05:38:21.637Z,79
2018-06-23T05:39:23.666Z,80
2018-06-23T05:40:25.713Z,80
2018-06-23T05:41:27.747Z,80
2018-06-23T05:42:29.790Z,80
2018-06-23T05:43:32.205Z,80
2018-06-23T05:44:34.246Z,81
2018-06-23T05:45:36.274Z,81
2018-06-23T05:46:38.318Z,81
2018-06-23T05:47:40.353Z,81
2018-06-23T05:48:42.384Z,81
2018-06-23T05:49:44.420Z,82
2018-06-23T05:50:46.456Z,81
2018-06-23T05:51:48.493Z,81
2018-06-23T05:52:50.516Z,81
2018-06-23T05:53:52.556Z,82
2018-06-23T05:54:54.882Z,82
2018-06-23T05:55:56.918Z,81
2018-06-23T05:56:58.950Z,81
2018-06-23T05:58:00.993Z,80
2018-06-23T05:59:03.024Z,80
2018-06-23T06:00:05.070Z,80
2018-06-23T06:01:07.102Z,80
2018-06-23T06:02:09.149Z,79
2018-06-23T06:03:11.191Z,80
2018-06-23T06:04:13.231Z,80
2018-06-23T06:05:15.265Z,79
2018-06-23T06:06:17.312Z,78
2018-06-23T06:07:19.633Z,79
2018-06-23T06:08:21.671Z,78
2018-06-23T06:09:24.105Z,79
2018-06-23T06:10:26.427Z,79
2018-06-23T06:11:28.465Z,79
2018-06-23T06:12:30.790Z,78
2018-06-23T06:13:32.821Z,77
2018-06-23T06:14:34.868Z,77
2018-06-23T06:15:36.888Z,76
2018-06-23T06:16:38.939Z,76
2018-06-23T06:17:41.256Z,76
2018-06-23T06:18:43.679Z,78
2018-06-23T06:19:45.724Z,75
2018-06-23T06:20:48.137Z,76
2018-06-23T06:21:50.174Z,76
2018-06-23T06:22:52.212Z,76
2018-06-23T06:23:54.555Z,74
2018-06-23T06:24:56.568Z,76
2018-06-23T06:25:58.611Z,74
2018-06-23T06:27:00.657Z,75
2018-06-23T06:28:02.680Z,75
2018-06-23T06:29:04.715Z,75
2018-06-23T06:30:06.754Z,75
2018-06-23T06:31:09.087Z,74
2018-06-23T06:32:11.135Z,75
2018-06-23T06:33:13.447Z,74
2018-06-23T06:34:15.490Z,75
2018-06-23T06:35:17.525Z,73
2018-06-23T06:36:19.943Z,74
2018-06-23T06:37:22.376Z,74
2018-06-23T06:38:24.427Z,73
2018-06-23T06:39:26.461Z,73
2018-06-23T06:40:28.496Z,74
2018-06-23T06:41:30.529Z,75
2018-06-23T06:42:32.863Z,75
2018-06-23T06:43:34.899Z,73
2018-06-23T06:44:37.430Z,75
2018-06-23T06:45:39.812Z,75
2018-06-23T06:46:42.129Z,76
2018-06-23T06:47:44.159Z,76
2018-06-23T06:48:46.203Z,76
2018-06-23T06:49:48.535Z,75
2018-06-23T06:50:51.054Z,72
2018-06-23T06:51:53.363Z,73
2018-06-23T06:52:55.690Z,72
2018-06-23T06:53:57.736Z,72
2018-06-23T06:55:00.445Z,72
2018-06-23T06:56:02.761Z,73
2018-06-23T06:57:04.844Z,74
2018-06-23T06:58:06.845Z,73
2018-06-23T06:59:08.875Z,74
2018-06-23T07:00:10.916Z,74
2018-06-23T07:01:12.948Z,73
2018-06-23T07:02:14.987Z,73
2018-06-23T07:03:17.026Z,73
2018-06-23T07:04:19.063Z,72
2018-06-23T07:05:21.100Z,71
2018-06-23T07:06:23.145Z,72
2018-06-23T07:07:26.136Z,71
2018-06-23T07:08:28.165Z,71
2018-06-23T07:09:30.500Z,71
2018-06-23T07:10:32.539Z,71
2018-06-23T07:11:34.596Z,72
2018-06-23T07:12:36.635Z,71
2018-06-23T07:13:38.685Z,71
2018-06-23T07:14:40.741Z,72
2018-06-23T07:16:44.817Z,71
2018-06-23T07:17:46.860Z,72
2018-06-23T07:18:48.896Z,72
2018-06-23T07:19:50.933Z,70
2018-06-23T07:20:52.969Z,71
2018-06-23T07:21:55.414Z,71
2018-06-23T07:22:57.460Z,70
2018-06-23T07:23:59.623Z,71
2018-06-23T07:25:01.543Z,71
2018-06-23T07:26:03.587Z,72
2018-06-23T07:27:05.640Z,71
2018-06-23T07:28:07.691Z,70
2018-06-23T07:29:10.115Z,71
2018-06-23T07:30:12.160Z,70
2018-06-23T07:31:14.485Z,70
2018-06-23T07:32:16.817Z,69
2018-06-23T07:33:18.859Z,70
2018-06-23T07:34:21.364Z,70
2018-06-23T07:35:23.387Z,72
2018-06-23T07:36:25.424Z,71
2018-06-23T07:37:27.850Z,72
2018-06-23T07:38:29.886Z,70
2018-06-23T07:39:32.606Z,72
2018-06-23T07:40:34.646Z,72
2018-06-23T07:41:36.699Z,72
2018-06-23T07:42:38.731Z,71
2018-06-23T07:43:40.773Z,71
2018-06-23T07:44:42.815Z,72
2018-06-23T07:45:44.850Z,72
2018-06-23T07:46:46.891Z,71
2018-06-23T07:47:48.931Z,72
2018-06-23T07:48:50.958Z,70
2018-06-23T07:49:53.007Z,70
2018-06-23T07:50:55.040Z,72
2018-06-23T07:51:57.107Z,71
2018-06-23T07:52:59.166Z,71
2018-06-23T07:54:01.233Z,70
2018-06-23T07:55:03.270Z,70
2018-06-23T07:56:05.338Z,71
2018-06-23T07:57:07.679Z,71
2018-06-23T07:58:09.785Z,70
2018-06-23T07:59:11.841Z,70
2018-06-23T08:00:13.884Z,70
2018-06-23T08:01:15.933Z,71
2018-06-23T08:02:17.999Z,69
2018-06-23T08:03:20.655Z,70
2018-06-23T08:04:22.708Z,69
2018-06-23T08:05:24.738Z,71
2018-06-23T08:06:27.172Z,70
2018-06-23T08:07:29.220Z,70
2018-06-23T08:08:31.553Z,70
2018-06-23T08:09:33.607Z,70
2018-06-23T08:10:35.646Z,70
2018-06-23T08:11:37.735Z,69
2018-06-23T08:12:39.790Z,70
2018-06-23T08:13:41.833Z,69
2018-06-23T08:14:43.880Z,70
2018-06-23T08:15:45.974Z,69
2018-06-23T08:16:48.041Z,67
2018-06-23T08:17:50.094Z,69
2018-06-23T08:18:52.171Z,71
2018-06-23T08:19:54.238Z,68
2018-06-23T08:20:56.296Z,68
2018-06-23T08:21:58.651Z,70
2018-06-23T08:23:00.702Z,68
2018-06-23T08:24:02.756Z,68
2018-06-23T08:25:05.299Z,70
2018-06-23T08:26:07.322Z,70
2018-06-23T08:27:09.403Z,71
2018-06-23T08:28:11.486Z,70
2018-06-23T08:29:13.849Z,69
2018-06-23T08:30:15.886Z,68
2018-06-23T08:31:17.951Z,70
2018-06-23T08:32:20.008Z,70
2018-06-23T08:33:22.053Z,71
2018-06-23T08:34:24.480Z,71
2018-06-23T08:35:26.556Z,72
2018-06-23T08:36:28.627Z,72
2018-06-23T08:37:30.957Z,70
2018-06-23T08:38:33.036Z,72
2018-06-23T08:39:35.128Z,71
2018-06-23T08:40:37.849Z,73
2018-06-23T08:41:39.885Z,73
2018-06-23T08:42:41.921Z,71
2018-06-23T08:43:44.050Z,71
2018-06-23T08:44:46.468Z,71
2018-06-23T08:45:48.530Z,70
2018-06-23T08:46:50.639Z,72
2018-06-23T08:47:53.064Z,70
2018-06-23T08:48:55.105Z,68
2018-06-23T08:49:57.152Z,69
2018-06-23T08:50:59.244Z,69
2018-06-23T08:52:01.294Z,70
2018-06-23T08:53:03.354Z,70
2018-06-23T08:54:05.444Z,69
2018-06-23T08:55:07.816Z,67
2018-06-23T08:56:09.888Z,68
2018-06-23T08:57:11.950Z,66
2018-06-23T08:58:14.033Z,66
2018-06-23T08:59:16.073Z,67
2018-06-23T09:00:18.119Z,66
2018-06-23T09:01:20.206Z,66
2018-06-23T09:02:22.629Z,67
2018-06-23T09:03:24.713Z,66
2018-06-23T09:04:26.765Z,65
2018-06-23T09:05:28.865Z,65
2018-06-23T09:06:31.210Z,66
2018-06-23T09:07:33.556Z,66
2018-06-23T09:08:35.893Z,66
2018-06-23T09:09:37.939Z,65
2018-06-23T09:10:39.982Z,66
2018-06-23T09:11:42.047Z,66
2018-06-23T09:12:44.371Z,64
2018-06-23T09:13:46.411Z,62
2018-06-23T09:14:48.459Z,61
2018-06-23T09:15:50.613Z,62
2018-06-23T09:16:52.693Z,63
2018-06-23T09:17:54.740Z,64
2018-06-23T09:18:57.199Z,66
2018-06-23T09:19:59.240Z,61
2018-06-23T09:21:01.591Z,60
2018-06-23T09:22:03.636Z,59
2018-06-23T09:23:06.237Z,62
2018-06-23T09:24:08.289Z,60
2018-06-23T09:25:10.349Z,60
2018-06-23T09:26:12.689Z,61
2018-06-23T09:27:14.735Z,60
2018-06-23T09:28:16.826Z,60
2018-06-23T09:29:19.245Z,61
2018-06-23T09:30:21.286Z,57
2018-06-23T09:31:23.330Z,60
2018-06-23T09:32:25.457Z,58
2018-06-23T09:33:27.490Z,58
2018-06-23T09:34:29.948Z,60
2018-06-23T09:35:33.032Z,60
2018-06-23T09:36:35.360Z,60
2018-06-23T09:37:37.463Z,62
2018-06-23T09:38:39.503Z,58
2018-06-23T09:39:41.557Z,57
2018-06-23T09:40:43.602Z,60
2018-06-23T09:41:45.734Z,60
2018-06-23T09:42:48.077Z,59
2018-06-23T09:43:50.127Z,58
2018-06-23T09:44:52.443Z,61
2018-06-23T09:45:55.423Z,59
2018-06-23T09:46:57.880Z,61
2018-06-23T09:47:59.922Z,62
2018-06-23T09:49:01.969Z,60
2018-06-23T09:50:04.304Z,60
2018-06-23T09:51:06.343Z,58
2018-06-23T09:52:08.804Z,61
2018-06-23T09:53:10.875Z,59
2018-06-23T09:54:12.919Z,60
2018-06-23T09:55:14.962Z,61
2018-06-23T09:56:17.077Z,59
2018-06-23T09:57:19.436Z,59
2018-06-23T09:58:21.485Z,59
2018-06-23T09:59:23.527Z,60
2018-06-23T10:00:25.682Z,61
2018-06-23T10:01:27.718Z,60
2018-06-23T10:02:29.808Z,63
2018-06-23T10:03:31.849Z,62
2018-06-23T10:04:34.310Z,60
2018-06-23T10:05:36.358Z,61
2018-06-23T10:06:38.432Z,59
2018-06-23T10:07:40.472Z,60
2018-06-23T10:08:42.568Z,58
2018-06-23T10:09:44.659Z,60
2018-06-23T10:10:46.792Z,60
2018-06-23T10:11:48.844Z,62
2018-06-23T10:12:51.176Z,59
2018-06-23T10:13:53.296Z,61
2018-06-23T10:14:55.343Z,61
2018-06-23T10:15:57.401Z,59
2018-06-23T10:16:59.450Z,61
2018-06-23T10:18:01.800Z,60
2018-06-23T10:19:04.148Z,62
2018-06-23T10:20:06.193Z,63
2018-06-23T10:21:08.233Z,63
2018-06-23T10:22:10.575Z,64
2018-06-23T10:23:13.276Z,65
2018-06-23T10:24:15.320Z,65
2018-06-23T10:25:17.351Z,66
2018-06-23T10:26:19.399Z,66
2018-06-23T10:27:21.841Z,67
2018-06-23T10:28:23.862Z,65
2018-06-23T10:29:26.203Z,65
2018-06-23T10:30:28.243Z,66
2018-06-23T10:31:30.678Z,66
2018-06-23T10:32:32.707Z,66
2018-06-23T10:33:34.876Z,66
2018-06-23T10:34:36.925Z,66
2018-06-23T10:35:38.968Z,66
2018-06-23T10:36:41.714Z,69
2018-06-23T10:37:43.819Z,66
2018-06-23T10:38:45.906Z,68
2018-06-23T10:39:47.898Z,67
2018-06-23T10:40:49.933Z,69
2018-06-23T10:41:51.987Z,66
2018-06-23T10:42:54.030Z,67
2018-06-23T10:43:56.076Z,67
2018-06-23T10:44:58.400Z,67
2018-06-23T10:46:00.448Z,66
2018-06-23T10:47:02.484Z,66
2018-06-23T10:48:04.529Z,66
2018-06-23T10:49:06.572Z,65
2018-06-23T10:50:08.607Z,65
2018-06-23T10:51:10.950Z,66
2018-06-23T10:52:13.274Z,66
2018-06-23T10:53:15.323Z,66
2018-06-23T10:54:17.371Z,65
2018-06-23T10:55:19.416Z,66
2018-06-23T10:56:21.749Z,66
2018-06-23T10:57:23.794Z,68
2018-06-23T10:58:25.842Z,67
2018-06-23T10:59:27.885Z,67
2018-06-23T11:00:30.600Z,70
2018-06-23T11:01:32.657Z,70
2018-06-23T11:02:34.702Z,71
2018-06-23T11:03:36.750Z,71
2018-06-23T11:04:38.825Z,72
2018-06-23T11:05:40.835Z,72
2018-06-23T11:06:42.872Z,74
2018-06-23T11:07:44.933Z,75
2018-06-23T11:08:46.972Z,73
2018-06-23T11:09:49.032Z,75
2018-06-23T11:10:51.378Z,75
2018-06-23T11:11:53.430Z,74
2018-06-23T11:12:55.478Z,74
2018-06-23T11:13:57.511Z,75
2018-06-23T11:14:59.560Z,74
2018-06-23T11:16:01.898Z,73
2018-06-23T11:17:03.940Z,73
2018-06-23T11:18:05.991Z,73
2018-06-23T11:19:08.427Z,72
2018-06-23T11:20:10.767Z,72
2018-06-23T11:21:12.807Z,74
2018-06-23T11:22:14.855Z,75
2018-06-23T11:23:16.895Z,74
2018-06-23T11:24:18.994Z,72
2018-06-23T11:25:20.977Z,71
2018-06-23T11:26:23.025Z,71
2018-06-23T11:27:25.080Z,72
2018-06-23T11:28:27.515Z,69
2018-06-23T11:29:29.546Z,70
2018-06-23T11:30:31.590Z,70
2018-06-23T11:31:33.644Z,68
2018-06-23T11:32:35.681Z,69
2018-06-23T11:33:37.722Z,67
2018-06-23T11:34:39.765Z,68
2018-06-23T11:35:42.104Z,67
2018-06-23T11:36:44.149Z,69
2018-06-23T11:37:46.187Z,69
2018-06-23T11:38:48.549Z,69
2018-06-23T11:39:50.595Z,68
2018-06-23T11:40:52.625Z,67
2018-06-23T11:41:54.674Z,67
2018-06-23T11:42:56.726Z,69
2018-06-23T11:43:58.775Z,66
2018-06-23T11:45:01.114Z,67
2018-06-23T11:46:03.171Z,67
2018-06-23T11:47:05.251Z,68
2018-06-23T11:48:07.286Z,68
2018-06-23T11:49:09.339Z,67
2018-06-23T11:50:11.703Z,68
2018-06-23T11:51:13.743Z,66
2018-06-23T11:52:16.352Z,67
2018-06-23T11:53:18.319Z,66
2018-06-23T11:54:20.761Z,65
2018-06-23T11:55:22.801Z,66
2018-06-23T11:56:24.837Z,67
2018-06-23T11:57:26.888Z,65
2018-06-23T11:58:28.946Z,68
2018-06-23T11:59:30.973Z,67
2018-06-23T12:00:33.021Z,67
2018-06-23T12:01:35.060Z,67
2018-06-23T12:02:37.113Z,67
2018-06-23T12:03:39.540Z,68
2018-06-23T12:04:41.589Z,68
2018-06-23T12:05:43.631Z,68
2018-06-23T12:06:45.676Z,66
2018-06-23T12:07:47.722Z,65
2018-06-23T12:08:49.763Z,66
2018-06-23T12:09:51.806Z,65
2018-06-23T12:10:53.840Z,67
2018-06-23T12:11:55.891Z,66
2018-06-23T12:12:57.935Z,65
2018-06-23T12:14:00.255Z,65
2018-06-23T12:15:02.301Z,66
2018-06-23T12:16:04.346Z,66
2018-06-23T12:17:06.676Z,65
2018-06-23T12:18:08.712Z,67
2018-06-23T12:19:10.763Z,64
2018-06-23T12:20:13.490Z,65
2018-06-23T12:21:15.604Z,64
2018-06-23T12:22:17.650Z,65
2018-06-23T12:23:19.697Z,67
2018-06-23T12:24:22.041Z,65
2018-06-23T12:25:24.105Z,63
2018-06-23T12:26:26.121Z,62
2018-06-23T12:27:28.169Z,64
2018-06-23T12:28:30.222Z,64
2018-06-23T12:29:32.270Z,62
2018-06-23T12:30:34.618Z,64
2018-06-23T12:31:36.654Z,63
2018-06-23T12:32:38.684Z,62
2018-06-23T12:33:41.009Z,63
2018-06-23T12:34:43.353Z,65
2018-06-23T12:35:45.393Z,62
2018-06-23T12:36:47.449Z,63
2018-06-23T12:37:49.786Z,64
2018-06-23T12:38:51.869Z,66
2018-06-23T12:39:53.905Z,67
2018-06-23T12:40:56.238Z,67
2018-06-23T12:41:58.570Z,67
2018-06-23T12:43:00.618Z,67
2018-06-23T12:44:02.665Z,69
2018-06-23T12:45:04.703Z,69
2018-06-23T12:46:06.742Z,69
2018-06-23T12:47:08.782Z,69
2018-06-23T12:48:11.209Z,71
2018-06-23T12:49:13.250Z,71
2018-06-23T12:50:15.411Z,70
2018-06-23T12:51:18.186Z,70
2018-06-23T12:52:20.236Z,69
2018-06-23T12:53:22.260Z,69
2018-06-23T12:54:24.320Z,70
2018-06-23T12:55:26.953Z,69
2018-06-23T12:56:28.995Z,68
2018-06-23T12:57:31.329Z,68
2018-06-23T12:58:33.658Z,68
2018-06-23T12:59:35.994Z,69
2018-06-23T13:00:38.037Z,68
2018-06-23T13:01:40.064Z,69
2018-06-23T13:02:42.408Z,68
2018-06-23T13:03:44.447Z,70
2018-06-23T13:04:46.868Z,67
2018-06-23T13:05:48.839Z,68
2018-06-23T13:06:51.274Z,70
2018-06-23T13:07:53.601Z,68
2018-06-23T13:08:55.925Z,67
2018-06-23T13:09:58.352Z,67
2018-06-23T13:11:00.406Z,69
2018-06-23T13:12:02.450Z,71
2018-06-23T13:13:05.073Z,67
2018-06-23T13:14:07.115Z,66
2018-06-23T13:15:09.183Z,68
2018-06-23T13:16:11.198Z,64
2018-06-23T13:17:13.243Z,65
2018-06-23T13:18:15.596Z,64
2018-06-23T13:19:17.646Z,65
2018-06-23T13:20:19.677Z,64
2018-06-23T13:21:21.725Z,65
2018-06-23T13:22:24.094Z,64
2018-06-23T13:23:26.115Z,64
2018-06-23T13:24:28.159Z,65
2018-06-23T13:25:30.205Z,64
2018-06-23T13:26:32.253Z,65
2018-06-23T13:27:34.664Z,64
2018-06-23T13:28:37.405Z,65
2018-06-23T13:29:39.450Z,66
2018-06-23T13:30:41.488Z,66
2018-06-23T13:31:44.118Z,66
2018-06-23T13:32:46.465Z,67
2018-06-23T13:33:48.799Z,67
2018-06-23T13:34:50.824Z,67
2018-06-23T13:35:52.869Z,67
2018-06-23T13:36:54.918Z,68
2018-06-23T13:37:56.957Z,70
2018-06-23T13:38:59.384Z,69
2018-06-23T13:40:01.431Z,68
2018-06-23T13:41:03.481Z,69
2018-06-23T13:42:05.821Z,69
2018-06-23T13:43:07.870Z,69
2018-06-23T13:44:09.919Z,69
2018-06-23T13:45:11.958Z,70
2018-06-23T13:46:13.994Z,71
2018-06-23T13:47:16.032Z,71
2018-06-23T13:48:18.079Z,70
2018-06-23T13:49:20.121Z,71
2018-06-23T13:50:22.159Z,71
2018-06-23T13:51:24.198Z,72
2018-06-23T13:52:26.295Z,69
2018-06-23T13:53:28.322Z,70
2018-06-23T13:54:30.373Z,70
2018-06-23T13:55:32.424Z,68
2018-06-23T13:56:34.474Z,68
2018-06-23T13:57:36.526Z,70
2018-06-23T13:58:38.860Z,69
2018-06-23T13:59:40.891Z,70
2018-06-23T14:00:42.956Z,69
2018-06-23T14:01:44.984Z,71
2018-06-23T14:02:47.029Z,71
2018-06-23T14:03:49.070Z,72
2018-06-23T14:04:51.107Z,71
2018-06-23T14:05:53.151Z,72
2018-06-23T14:06:55.195Z,72
2018-06-23T14:07:57.225Z,72
2018-06-23T14:08:59.283Z,71
2018-06-23T14:10:01.318Z,72
2018-06-23T14:11:03.642Z,72
2018-06-23T14:12:05.687Z,73
2018-06-23T14:13:07.729Z,73
2018-06-23T14:14:10.062Z,74
2018-06-23T14:15:12.101Z,74
2018-06-23T14:16:14.144Z,74
2018-06-23T14:17:16.189Z,73
2018-06-23T14:18:18.617Z,73
2018-06-23T14:19:20.665Z,73
2018-06-23T14:20:22.711Z,71
2018-06-23T14:21:24.749Z,74
2018-06-23T14:22:27.087Z,73
2018-06-23T14:23:29.134Z,72
2018-06-23T14:24:31.179Z,73
2018-06-23T14:25:33.228Z,72
2018-06-23T14:26:35.845Z,72
2018-06-23T14:27:37.898Z,73
2018-06-23T14:28:40.216Z,73
2018-06-23T14:29:42.259Z,72
2018-06-23T14:30:44.297Z,73
2018-06-23T14:31:47.122Z,72
2018-06-23T14:32:49.004Z,73
2018-06-23T14:33:51.038Z,74
2018-06-23T14:34:53.078Z,72
2018-06-23T14:35:55.141Z,74
2018-06-23T14:36:57.461Z,75
2018-06-23T14:37:59.895Z,76
2018-06-23T14:39:01.930Z,77
2018-06-23T14:40:04.201Z,80
2018-06-23T14:41:06.535Z,80
2018-06-23T14:42:08.574Z,82
2018-06-23T14:43:10.604Z,83
2018-06-23T14:44:12.645Z,82
2018-06-23T14:45:14.676Z,83
2018-06-23T14:46:16.725Z,85
2018-06-23T14:47:18.770Z,85
2018-06-23T14:48:21.111Z,86
2018-06-23T14:49:23.144Z,84